Tuesday, May 03, 2016
12:28 UTC
  |  Log In   |  Register Free
Airport Search:

Greater Portsmouth Regional Airport
(KPMH)

Greater Portsmouth Regional Airport Diagram
No Airport Diagram Available

FAA data valid effective Mar 31 2016 - May 26 2016 (unless otherwise noted).

 
 
 
 
 
 
 
 
 
 
 
 
 
 
Current Aviation Weather for KPMH

Weather Summary


Current weather conditions are not available for PMH - The nearest NOAA weather station is at DWU, (17.9 nm SE from PMH)

The most recent METAR observation for PMH was updated at: 12:51 UTC
METAR for KPMH is not available. Closest METAR is for
TAF for KPMH is not available.
KHTS  (31.5 nm NW)   (most recent observation was updatred at 31:13 UTC)
031130Z 0312/0412 VRB03KT P6SM BKN008 OVC025 FM031700 28005KT P6SM BKN015 FM032000 30006KT P6SM BKN035


GlobalAir.com is loading additional information.
 Current Weather at HTS
57.0 F° (13.9 C°)

North winds at 0.0 mph
Pressure:
29.87 in
Humidity:
96%
Wind:
North at 0.0 mph
Dew Point:
55.9 F° (13.3 C°)
Visibility:
8.00 mi
PMH NOAA Radar




Find All Airport Services Find A Hotel Find A Rental Car Find A Golf Course Find A Restaurant $100 Hamburger



Airport Weather Forecast for KPMH

Translated METAR for KHTS (TS)
METAR:
TAF KHTS 031130Z 0312/0412 VRB03KT P6SM BKN008 OVC025 FM031700 28005KT P6SM BKN015 FM032000 30006KT P6SM BKN035
Conditions at:
TS 03 May 2016
Temperature:
312°C (593.6°F)
Dewpoint:
Pressure:
not reported - refer to area weather report
Winds:
from the NNE (031 degrees) at 15 mph (13 knots: 6.7 m/s)
Visibility:
P6 mile(s)
Ceiling:
800 feet AGL
Clouds:
Broken Cloud Cover at 800 feet AGL
Overcast Skies at 2,500 feet AGL
Remarks:

Translated TAF for KHTS (Tri-State/Milton J Ferguson Field, WV) (1130 UTC)
TAF text:
KHTS 031130Z 0312/0412 VRB03KT P6SM BKN008 OVC025
Forecast period:
Tuesday May 03 2016 12:00 UTC - Wednesday May 04 2016 12:00 UTC
Forecast type:
FROM: standard forecast or significant change
Winds:
variable wind direction at 3.5 mph (3 knots: 1.5 m/s)
Visibility:
6 or more mile(s) (9.7+ km)
Ceiling:
800 feet AGL
Clouds:
Broken Cloud Cover at 800 feet AGL
Overcast Skies at 2,500 feet AGL
Weather:
no significant weather observed at this time
TAF text:
FM031700 28005KT P6SM BKN015
Forecast period:
Tuesday May 03 2016 17:00 UTC - Tuesday May 03 2016 20:00 UTC
Forecast type:
FROM: standard forecast or significant change
Winds:
from the W (280 degrees) at 5.8 mph (5 knots: 2.6 m/s)
Visibility:
6 or more mile(s) (9.7+ km)
Ceiling:
1,500 feet AGL
Clouds:
Broken Cloud Cover at 1,500 feet AGL
Weather:
no significant weather observed at this time
TAF text:
FM032000 30006KT P6SM BKN035
Forecast period:
Tuesday May 03 2016 20:00 UTC - Wednesday May 04 2016 12:00 UTC
Forecast type:
FROM: standard forecast or significant change
Winds:
from the WNW (300 degrees) at 6.9 mph (6 knots: 3.1 m/s)
Visibility:
6 or more mile(s) (9.7+ km)
Ceiling:
3,500 feet AGL
Clouds:
Broken Cloud Cover at 3,500 feet AGL
Weather:
no significant weather observed at this time
FBO's on the Field
FBO Company Facility Photos Services Transportation Aviation Fuel Prices: Prices include tax
Catering Weather Repair Courtesy Rental Type 100LL JetA JetA+ MOGAS 8087
 
Chasteen Aviation, Inc.

This FBO has not yet been rated
FS:Phillips 66
Last Updated: Mar-30
Login to update fuel prices
SS:
Contact Chasteen Aviation, Inc.More FBO Information
 
Add another FBO Facility Photos Catering Weather Repair Courtesy Rental Type 100LL JetA JetA+ MOGAS 8087
Services Transportation Aviation Fuel Prices: Prices include tax


model-print
model-print
model-print
model-print